Latest Coastal Weather Observations for Melbourne (Olympic Park)

IDV60701

Issued at 2:01 am EST Thursday 28 May 2015 (issued every 10 minutes, with the page automatically refreshed every 10 minutes)

About coastal observations | Map of coastal stations | Coastal observations for VIC | Marine services | Other Formats
Station Details ID: 086338 Name: MELBOURNE (OLYMPIC PARK) Lat: -37.83 Lon: 144.98 Height: 7.53 m
Data from the previous 72 hours. | See also: Recent months at Melbourne (Olympic Park)
Date/Time
EST
Temp

°C
Wind Pressure Rain
since 9am
mm
Weather Cloud Vis
km
Sea
Height
m
Swell
Dir
 
Speed
knots
Gust
knots
hPa Trend Height
m
Period
s
Dir
28/02:00am 13.5 N 7 13 1017.8 - 0.0 - - - - - - -
28/01:30am 13.9 N 8 12 1018.2 - 0.0 - - - - - - -
28/01:00am 13.9 N 8 14 1018.2 - 0.0 - - - - - - -
28/12:30am 13.9 N 7 11 1018.4 - 0.0 - - - - - - -
28/12:00am 14.0 N 8 12 1018.6 - 0.0 - - - - - - -
 
Date/Time
EST
Temp

°C
Wind Pressure Rain
since 9am
mm
Weather Cloud Vis
km
Sea
Height
m
Swell
Dir
 
Speed
knots
Gust
knots
hPa Trend Height
m
Period
s
Dir
27/11:30pm 13.9 N 9 14 1018.8 - 0.0 - - - - - - -
27/11:00pm 14.1 N 8 12 1018.7 - 0.0 - - - - - - -
27/10:30pm 14.1 N 8 13 1018.8 - 0.0 - - - - - - -
27/10:00pm 14.4 N 11 17 1018.7 - 0.0 - - - - - - -
27/09:30pm 14.9 N 10 14 1018.6 - 0.0 - - - - - - -
27/09:00pm 14.8 N 8 11 1018.8 - 0.0 - - - - - - -
27/08:30pm 15.1 N 9 14 1018.9 - 0.0 - - - - - - -
27/08:00pm 14.3 NNE 6 9 1018.8 - 0.0 - - - - - - -
27/07:30pm 14.5 N 5 6 1018.9 - 0.0 - - - - - - -
27/07:00pm 15.2 N 8 14 1018.8 - 0.0 - - - - - - -
27/06:30pm 15.7 N 9 14 1018.7 - 0.0 - - - - - - -
27/06:00pm 15.9 N 9 16 1018.5 - 0.0 - - - - - - -
27/05:30pm 16.3 N 10 15 1018.3 - 0.0 - - - - - - -
27/05:00pm 16.7 N 11 17 1018.0 - 0.0 - - - - - - -
27/04:30pm 17.3 N 10 15 1017.8 - 0.0 - - - - - - -
27/04:00pm 17.9 NNW 9 15 1017.8 - 0.0 - - - - - - -
27/03:30pm 18.3 NNW 7 13 1017.8 - 0.0 - - - - - - -
27/03:00pm 18.1 N 12 16 1017.6 - 0.0 - - - - - - -
27/02:30pm 18.6 N 12 20 1017.7 - 0.0 - - - - - - -
27/02:00pm 17.5 N 12 18 1017.9 - 0.0 - - - - - - -
27/01:30pm 18.1 N 9 15 1018.3 - 0.0 - - - - - - -
27/01:00pm 16.8 N 10 17 1018.7 - 0.0 - - - - - - -
27/12:30pm 15.9 N 9 15 1019.1 - 0.0 - - - - - - -
27/12:00pm 15.1 N 12 20 1019.9 - 0.0 - - - - - - -
27/11:30am 15.1 N 10 16 1020.3 - 0.0 - - - - - - -
27/11:00am 15.5 N 9 15 1020.8 - 0.0 - - - - - - -
27/10:30am 14.8 N 11 21 1021.0 - 0.0 - - - - - - -
27/10:00am 14.0 N 10 14 1021.1 - 0.0 - - - - - - -
27/09:30am 13.5 N 8 11 1021.1 - 0.0 - - - - - - -
27/09:00am 13.2 N 7 9 1021.0 - 0.0 - - - - - - -
27/08:30am 12.8 N 5 7 1020.9 - 0.0 - - - - - - -
27/08:00am 12.9 N 6 8 1020.9 - 0.0 - - - - - - -
27/07:30am 12.8 N 6 9 1020.9 - 0.0 - - - - - - -
27/07:00am 12.8 N 5 7 1020.7 - 0.0 - - - - - - -
27/06:30am 12.6 N 6 8 1020.6 - 0.0 - - - - - - -
27/06:00am 13.0 N 5 9 1020.6 - 0.0 - - - - - - -
27/05:30am 12.7 N 6 9 1020.9 - 0.0 - - - - - - -
27/05:00am 13.1 N 7 10 1021.0 - 0.0 - - - - - - -
27/04:30am 12.9 N 9 14 1021.0 - 0.0 - - - - - - -
27/04:00am 13.0 N 9 14 1021.0 - 0.0 - - - - - - -
27/03:30am 12.7 N 11 16 1021.1 - 0.0 - - - - - - -
27/03:00am 12.7 N 9 14 1021.6 - 0.0 - - - - - - -
27/02:30am 12.6 N 8 11 1022.0 - 0.0 - - - - - - -
27/02:00am 12.0 N 6 12 1022.2 - 0.0 - - - - - - -
27/01:30am 11.0 N 4 5 1022.3 - 0.0 - - - - - - -
27/01:00am 10.8 N 5 7 1022.7 - 0.0 - - - - - - -
27/12:30am 10.2 N 7 9 1022.9 - 0.0 - - - - - - -
27/12:00am 10.4 NNE 5 8 1023.2 - 0.0 - - - - - - -
 
Date/Time
EST
Temp

°C
Wind Pressure Rain
since 9am
mm
Weather Cloud Vis
km
Sea
Height
m
Swell
Dir
 
Speed
knots
Gust
knots
hPa Trend Height
m
Period
s
Dir
26/11:30pm 10.5 N 3 5 1023.7 - 0.0 - - - - - - -
26/11:00pm 10.9 NNE 5 7 1023.7 - 0.0 - - - - - - -
26/10:30pm 11.2 NE 5 7 1023.8 - 0.0 - - - - - - -
26/10:00pm 11.6 NNE 4 6 1024.2 - 0.0 - - - - - - -
26/09:30pm 11.7 NNE 4 6 1024.2 - 0.0 - - - - - - -
26/09:00pm 12.2 N 4 7 1024.2 - 0.0 - - - - - - -
26/08:30pm 12.7 NNE 4 7 1024.1 - 0.0 - - - - - - -
26/08:00pm 13.1 NNE 5 8 1024.3 - 0.0 - - - - - - -
26/07:30pm 13.6 N 6 9 1024.6 - 0.0 - - - - - - -
26/07:00pm 14.0 N 6 11 1024.8 - 0.0 - - - - - - -
26/06:30pm 14.2 N 5 8 1025.0 - 0.0 - - - - - - -
26/06:00pm 14.1 N 2 6 1025.0 - 0.0 - - - - - - -
26/05:30pm 14.5 NE 3 5 1024.6 - 0.0 - - - - - - -
26/05:00pm 14.8 N 4 7 1024.6 - 0.0 - - - - - - -
26/04:30pm 15.3 N 6 8 1024.8 - 0.0 - - - - - - -
26/04:00pm 15.1 N 6 8 1025.4 - 0.0 - - - - - - -
26/03:30pm 15.1 N 5 8 1025.3 - 0.0 - - - - - - -
26/03:00pm 15.5 N 7 11 1025.2 - 0.0 - - - - - - -
26/02:30pm 15.3 N 9 14 1025.6 - 0.0 - - - - - - -
26/02:00pm 15.5 N 6 11 1026.0 - 0.0 - - - - - - -
26/01:30pm 15.1 NE 4 7 1026.3 - 0.0 - - - - - - -
26/01:00pm 14.8 NE 5 6 1026.7 - 0.0 - - - - - - -
26/12:30pm 14.4 NE 3 6 1027.0 - 0.0 - - - - - - -
26/12:00pm 14.5 NNE 4 8 1027.5 - 0.0 - - - - - - -
26/11:30am 13.1 ENE 2 5 1028.1 - 0.0 - - - - - - -
26/11:00am 12.6 NE 4 6 1028.9 - 0.0 - - - - - - -
26/10:30am 12.0 NNE 5 7 1029.5 - 0.0 - - - - - - -
26/10:00am 9.7 NNE 5 7 1029.7 - 0.0 - - - - - - -
26/09:30am 8.7 NNE 5 7 1029.7 - 0.0 - - - - - - -
26/09:00am 7.9 NNE 6 8 1029.8 - 0.0 - - - - - - -
26/08:30am 6.8 NNE 6 8 1029.8 - 0.0 - - - - - - -
26/08:00am 6.0 NNE 5 8 1029.9 - 0.0 - - - - - - -
26/07:30am 5.6 NNE 6 8 1029.8 - 0.0 - - - - - - -
26/07:00am 5.5 NNE 5 7 1029.5 - 0.0 - - - - - - -
26/06:30am 5.5 NNE 5 7 1029.4 - 0.0 - - - - - - -
26/06:00am 5.7 NNE 4 6 1029.3 - 0.0 - - - - - - -
26/05:30am 5.5 NNE 5 7 1029.4 - 0.0 - - - - - - -
26/05:00am 5.9 NNE 5 7 1029.2 - 0.0 - - - - - - -
26/04:30am 6.1 NNE 5 7 1029.3 - 0.0 - - - - - - -
26/04:00am 6.4 NNE 3 5 1029.3 - 0.0 - - - - - - -
26/03:30am 6.6 NNE 4 7 1029.4 - 0.0 - - - - - - -
26/03:00am 6.9 NNE 4 6 1029.5 - 0.0 - - - - - - -
26/02:30am 7.3 NNE 5 7 1029.7 - 0.0 - - - - - - -
26/02:00am 7.5 NNE 5 8 1029.7 - 0.0 - - - - - - -
26/01:30am 7.6 NNE 3 5 1029.6 - 0.0 - - - - - - -
26/01:00am 7.8 NNE 1 4 1029.8 - 0.0 - - - - - - -
26/12:30am 8.2 NNE 5 6 1030.0 - 0.0 - - - - - - -
26/12:00am 8.3 NNE 2 6 1030.0 - 0.0 - - - - - - -
 
Date/Time
EST
Temp

°C
Wind Pressure Rain
since 9am
mm
Weather Cloud Vis
km
Sea
Height
m
Swell
Dir
 
Speed
knots
Gust
knots
hPa Trend Height
m
Period
s
Dir
25/11:30pm 8.5 NNE 5 6 1030.0 - 0.0 - - - - - - -
25/11:00pm 8.8 NNE 5 6 1030.1 - 0.0 - - - - - - -
25/10:30pm 9.2 NNE 4 7 1030.3 - 0.0 - - - - - - -
25/10:00pm 9.6 NNE 4 5 1030.4 - 0.0 - - - - - - -
25/09:30pm 10.1 NNE 5 8 1030.4 - 0.0 - - - - - - -
25/09:00pm 10.4 NNE 4 6 1030.4 - 0.0 - - - - - - -
25/08:30pm 10.4 NNE 1 5 1030.3 - 0.0 - - - - - - -
25/08:00pm 11.5 NNE 5 7 1030.2 - 0.0 - - - - - - -
25/07:30pm 12.0 NE 3 5 1030.1 - 0.0 - - - - - - -
25/07:00pm 12.4 NNE 3 5 1029.8 - 0.0 - - - - - - -
25/06:30pm 13.3 NE 3 5 1029.5 - 0.0 - - - - - - -
25/06:00pm 13.7 NNE 3 5 1029.1 - 0.0 - - - - - - -
25/05:30pm 14.4 NE 3 5 1028.7 - 0.0 - - - - - - -
25/05:00pm 15.0 NNE 5 7 1028.6 - 0.0 - - - - - - -
25/04:30pm 15.9 NNE 5 6 1028.7 - 0.0 - - - - - - -
25/04:00pm 15.6 NNE 4 7 1028.8 - 0.0 - - - - - - -
25/03:30pm 16.2 N 5 9 1028.8 - 0.0 - - - - - - -
25/03:00pm 16.2 N 6 8 1028.8 - 0.0 - - - - - - -
25/02:30pm 17.0 NNE 6 9 1029.0 - 0.0 - - - - - - -
25/02:00pm 16.3 N 6 9 1029.3 - 0.0 - - - - - - -
25/01:30pm 15.7 NNE 7 11 1029.6 - 0.0 - - - - - - -
25/01:00pm 15.8 N 6 9 1029.9 - 0.0 - - - - - - -
25/12:30pm 15.3 NNE 7 13 1030.2 - 0.0 - - - - - - -
25/12:00pm 13.9 NNE 6 9 1030.7 - 0.0 - - - - - - -
25/11:30am 13.9 NNE 5 8 1031.1 - 0.0 - - - - - - -
25/11:00am 13.0 NE 5 7 1031.5 - 0.0 - - - - - - -
25/10:30am 12.1 E 4 5 1031.7 - 0.0 - - - - - - -
25/10:00am 11.6 NNE 5 8 1031.6 - 0.0 - - - - - - -
25/09:30am 10.8 NNE 5 8 1031.5 - 0.0 - - - - - - -
25/09:00am 10.4 NNE 5 7 1031.7 - 0.0 - - - - - - -
25/08:30am 9.9 NE 4 6 1031.7 - 0.0 - - - - - - -
25/08:00am 9.6 NE 3 5 1031.6 - 0.0 - - - - - - -
25/07:30am 9.3 NNE 5 7 1031.3 - 0.0 - - - - - - -
25/07:00am 9.4 NNE 5 7 1031.4 - 0.0 - - - - - - -
25/06:30am 9.2 NE 5 7 1031.0 - 0.0 - - - - - - -
25/06:00am 8.9 N 4 6 1031.0 - 0.0 - - - - - - -
25/05:30am 8.9 N 4 7 1030.5 - 0.0 - - - - - - -
25/05:00am 8.7 NNE 3 5 1029.9 - 0.0 - - - - - - -
25/04:30am 8.7 N 3 5 1030.1 - 0.0 - - - - - - -
25/04:00am 8.7 NNE 4 6 1030.1 - 0.0 - - - - - - -
25/03:30am 8.7 NNE 5 7 1030.2 - 0.0 - - - - - - -
25/03:00am 8.8 NNE 3 5 1030.4 - 0.0 - - - - - - -
25/02:30am 9.0 NNE 5 7 1030.7 - 0.0 - - - - - - -

Other Formats:

Comma delimited format used in spreadsheet applications
http://www.bom.gov.au/fwo/IDV60701/IDV60701.95936.axf

JavaScript Object Notation format (JSON) in row-major order
http://www.bom.gov.au/fwo/IDV60701/IDV60701.95936.json